Danville, VA

8:24 AM EDT on September 19, 2014 (GMT -0400)
Druid Hills | Change Station
CLOSE
Current Station
Personal Weather Station
Location: Danville, VA
Elevation: 499 ft
Nearby Weather Stations

Elev 499 ft 36.56 °N, 79.42 °W | Updated 1 minute ago

Overcast
Overcast
65.3 °F
Feels Like 65.3 °F
N
1.1
Wind Variable Wind from East

Today
High -- | Low -- °F
--% Chance of Precip.
Yesterday
High -- | Low -- °F
Precip. -- in
7:03 AM 7:19 PM
Waning Crescent, 19% visible
Pressure 30.15 in
Visibility 8.0 miles
Clouds Scattered Clouds 3000 ft
Overcast 4600 ft
Dew Point 64 °F
Humidity 94%
Rainfall 0.00 in
Snow Depth Not available.
UV 0 out of 12
Pollen 5.60 out of 12
Air Quality Not available.
Flu Activity Not available.
METAR KDAN 191153Z AUTO 05005KT 8SM SCT030 OVC046 18/16 A3017 RMK AO2 SLP209 T01830161 10194 20167 53018

More Conditions Fewer Conditions

Pressure 30.15 in
Visibility 8.0 miles
Clouds Scattered Clouds 3000 ft
Overcast 4600 ft
Dew Point 64 °F
Humidity 94%
Rainfall 0.00 in
Snow Depth Not available.
UV 0 out of 12
Pollen 5.60 out of 12
Air Quality Not available.
Flu Activity Not available.
METAR KDAN 191153Z AUTO 05005KT 8SM SCT030 OVC046 18/16 A3017 RMK AO2 SLP209 T01830161 10194 20167 53018

More Conditions Fewer Conditions

10-Day Weather Forecast

Almanac

Astronomy

Sep. 19, 2014 Rise Set
Actual Time 7:03 AM EDT 7:19 PM EDT
Civil Twilight 6:37 AM EDT 7:44 PM EDT
Nautical Twilight 6:06 AM EDT 8:14 PM EDT
Astronomical Twilight 5:36 AM EDT 8:45 PM EDT
Moon 2:52 AM EDT 4:42 PM EDT
Length of Visible Light 13h 07m
Length of Day
12h 15m
Tomorrow will be 2m 19s shorter.
Waning Crescent, 19% of the Moon is Illuminated
Today
Waning Crescent
Sep 24
New
Oct 1
First Quarter
Oct 8
Full
Oct 15
Last Quarter

Today's Extremes

State Highs State Lows

Community

WunderPhotos

Upload Photos

1,754,598 photos uploaded!

Nearby

Snow Depth

Station Depth Elevation
No new snow has been reported.

Earthquake Activity

City Distance Mag. Time & Date
No recent earthquake activity has been reported nearby.
Minimum magnitude displayed is 2.5.

Coastal Water Temperatures

Place Temperature
No Stations Reporting

Nearby Weather Stations